Time;durP1;ratioP1;P1;durP2;ratioP2;P2;SDS_P1;SDS_P2;PMS_P1;PMS_P2;Temp;Humidity;BMP_temperature;BMP_pressure;BME280_temperature;BME280_humidity;BME280_pressure;Samples;Min_cycle;Max_cycle;Signal;HPM_P1;HPM_P2
2023/12/29 00:00:03;;;;;;;11.52;3.20;;;9.90;99.90;;;;;;5071327;28;20068;-72
2023/12/29 00:02:29;;;;;;;9.93;2.80;;;9.90;99.90;;;;;;5071135;28;20041;-72
2023/12/29 00:04:54;;;;;;;16.92;3.78;;;10.00;99.90;;;;;;5071200;28;20033;-73
2023/12/29 00:07:20;;;;;;;10.57;3.05;;;10.00;99.90;;;;;;5069679;28;20106;-73
2023/12/29 00:09:45;;;;;;;11.88;3.65;;;10.10;99.90;;;;;;5071349;28;20064;-72
2023/12/29 00:12:11;;;;;;;9.90;2.75;;;10.10;99.90;;;;;;5071048;28;20095;-72
2023/12/29 00:14:38;;;;;;;15.85;3.38;;;10.10;99.90;;;;;;5071097;28;20119;-73
2023/12/29 00:17:04;;;;;;;10.05;3.03;;;10.20;99.90;;;;;;5070701;28;20094;-72
2023/12/29 00:19:29;;;;;;;8.90;2.40;;;10.20;99.90;;;;;;5071111;28;20036;-73
2023/12/29 00:21:55;;;;;;;14.75;2.72;;;10.20;99.90;;;;;;5071149;28;20036;-73
2023/12/29 00:24:20;;;;;;;8.85;3.17;;;10.10;99.90;;;;;;5069927;28;20040;-72
2023/12/29 00:26:47;;;;;;;13.70;2.90;;;10.20;99.90;;;;;;5070863;28;20484;-73
2023/12/29 00:29:15;;;;;;;19.25;3.70;;;10.10;99.90;;;;;;5070886;28;20048;-72
2023/12/29 00:31:40;;;;;;;16.10;3.33;;;10.10;99.90;;;;;;5069659;28;20041;-73
2023/12/29 00:34:06;;;;;;;7.20;3.10;;;10.20;99.90;;;;;;5070990;28;20488;-73
2023/12/29 00:36:32;;;;;;;11.35;2.95;;;10.20;99.90;;;;;;5070911;28;20050;-73
2023/12/29 00:38:57;;;;;;;12.82;4.32;;;10.20;99.90;;;;;;5070906;28;20037;-73
2023/12/29 00:41:23;;;;;;;9.05;2.40;;;10.30;99.90;;;;;;5070865;28;20042;-73
2023/12/29 00:43:48;;;;;;;10.90;2.08;;;10.20;99.90;;;;;;5070886;28;20032;-73
2023/12/29 00:46:15;;;;;;;9.50;2.60;;;10.30;99.90;;;;;;5069961;28;20086;-72
2023/12/29 00:48:41;;;;;;;9.95;2.63;;;10.20;99.90;;;;;;5074472;28;20119;-72
2023/12/29 00:51:07;;;;;;;15.02;3.10;;;10.10;99.90;;;;;;5074347;28;20128;-72
2023/12/29 00:53:34;;;;;;;12.82;2.50;;;10.20;99.90;;;;;;5074315;28;20068;-72
2023/12/29 00:56:00;;;;;;;10.02;2.97;;;10.20;99.90;;;;;;5074119;28;20080;-73
2023/12/29 00:58:26;;;;;;;8.23;2.08;;;10.10;99.90;;;;;;5072805;28;20037;-72
2023/12/29 01:00:52;;;;;;;11.95;3.28;;;10.20;99.90;;;;;;5072780;28;20033;-73
2023/12/29 01:03:18;;;;;;;13.27;2.92;;;10.20;99.90;;;;;;5074413;28;20046;-72
2023/12/29 01:05:43;;;;;;;14.75;3.45;;;10.10;99.90;;;;;;5056161;28;20036;-72
2023/12/29 01:08:09;;;;;;;12.85;2.53;;;10.10;99.90;;;;;;5073853;28;20060;-72
2023/12/29 01:10:34;;;;;;;11.30;2.63;;;10.10;99.90;;;;;;5074030;28;20041;-72
2023/12/29 01:13:00;;;;;;;12.65;3.25;;;10.00;99.90;;;;;;5074084;28;20612;-73
2023/12/29 01:15:26;;;;;;;11.45;2.67;;;9.90;99.90;;;;;;5073909;28;20040;-72
2023/12/29 01:17:51;;;;;;;15.32;3.30;;;9.90;99.90;;;;;;5074137;28;20037;-72
2023/12/29 01:20:17;;;;;;;11.80;2.67;;;10.00;99.90;;;;;;5074260;28;20032;-72
2023/12/29 01:22:43;;;;;;;7.85;3.13;;;9.80;99.90;;;;;;5074049;28;20116;-72
2023/12/29 01:25:08;;;;;;;9.85;3.00;;;9.80;99.90;;;;;;5073966;28;20032;-72
2023/12/29 01:27:34;;;;;;;20.13;2.92;;;9.80;99.90;;;;;;5073638;28;20470;-73
2023/12/29 01:30:00;;;;;;;16.00;3.58;;;9.70;99.90;;;;;;5072439;28;20044;-73
2023/12/29 01:32:26;;;;;;;25.52;5.57;;;9.80;99.90;;;;;;5073872;28;20047;-73
2023/12/29 01:34:52;;;;;;;15.32;3.38;;;9.70;99.90;;;;;;5072550;28;20127;-73
2023/12/29 01:37:18;;;;;;;13.55;2.88;;;9.80;99.90;;;;;;5073337;28;20036;-72
2023/12/29 01:39:43;;;;;;;14.25;3.05;;;9.80;99.90;;;;;;5073453;28;20039;-72
2023/12/29 01:42:11;;;;;;;14.52;3.53;;;9.70;99.90;;;;;;5073515;28;20040;-73
2023/12/29 01:44:36;;;;;;;14.75;3.90;;;9.90;99.90;;;;;;5072180;28;20036;-73
2023/12/29 01:47:05;;;;;;;15.30;4.35;;;9.90;99.90;;;;;;5073431;28;20050;-73
2023/12/29 01:49:33;;;;;;;9.77;3.95;;;9.90;99.90;;;;;;5073475;28;20041;-73
2023/12/29 01:52:00;;;;;;;12.57;3.53;;;9.80;99.90;;;;;;5071802;28;20040;-72
2023/12/29 01:54:32;;;;;;;10.27;3.15;;;9.70;99.90;;;;;;5072199;28;20113;-72
2023/12/29 01:57:00;;;;;;;9.70;2.40;;;9.80;99.90;;;;;;5072939;28;20037;-72
2023/12/29 01:59:27;;;;;;;8.60;1.60;;;9.60;99.90;;;;;;5072219;28;20048;-73
2023/12/29 02:01:56;;;;;;;11.30;2.42;;;9.60;99.90;;;;;;5071752;28;20048;-72
2023/12/29 02:04:24;;;;;;;5.68;2.00;;;9.50;99.90;;;;;;5071732;28;20530;-73
2023/12/29 02:06:50;;;;;;;3.33;0.80;;;9.40;99.90;;;;;;5071579;28;20538;-73
2023/12/29 02:09:17;;;;;;;8.93;1.30;;;9.30;99.90;;;;;;5072636;28;20044;-73
2023/12/29 02:11:42;;;;;;;11.88;3.38;;;9.10;99.90;;;;;;5072739;28;20044;-73
2023/12/29 02:14:08;;;;;;;3.08;0.85;;;9.00;99.90;;;;;;5071482;28;20036;-73
2023/12/29 02:17:02;;;;;;;5.90;1.05;;;8.80;99.90;;;;;;5072788;28;20048;-73
2023/12/29 02:19:43;;;;;;;4.47;1.00;;;8.40;99.90;;;;;;5072718;28;20045;-73
2023/12/29 02:22:10;;;;;;;5.15;0.95;;;8.40;99.90;;;;;;5071591;28;20528;-73
2023/12/29 02:24:36;;;;;;;8.15;1.27;;;8.20;99.90;;;;;;5072726;28;20033;-73
2023/12/29 02:27:05;;;;;;;6.70;1.20;;;8.00;99.90;;;;;;5071158;28;20094;-73
2023/12/29 02:29:33;;;;;;;9.00;2.50;;;7.80;99.90;;;;;;5071444;28;20516;-73
2023/12/29 02:32:04;;;;;;;7.75;1.40;;;7.90;99.90;;;;;;5071483;28;20506;-73
2023/12/29 02:34:32;;;;;;;7.10;1.67;;;7.90;99.90;;;;;;5054791;28;20400;-73
2023/12/29 02:36:59;;;;;;;11.30;1.95;;;7.70;99.90;;;;;;5071009;28;20435;-73
2023/12/29 02:39:25;;;;;;;10.23;2.28;;;7.90;99.90;;;;;;5070991;28;20033;-73
2023/12/29 02:41:50;;;;;;;11.90;2.10;;;8.00;99.90;;;;;;5071252;28;20036;-73
2023/12/29 02:44:16;;;;;;;13.60;2.33;;;7.90;99.90;;;;;;5071019;28;20487;-73
2023/12/29 02:46:42;;;;;;;10.25;1.92;;;8.00;99.90;;;;;;5072078;28;20041;-73
2023/12/29 02:49:12;;;;;;;11.80;2.97;;;8.00;99.90;;;;;;5070723;28;20064;-73
2023/12/29 02:51:38;;;;;;;11.80;2.22;;;8.00;99.90;;;;;;5089482;22;20044;-72
2023/12/29 02:54:05;;;;;;;11.27;2.67;;;7.70;99.90;;;;;;5050524;28;20420;-72
2023/12/29 02:56:31;;;;;;;12.25;2.55;;;7.90;99.90;;;;;;5033819;28;20461;-71
2023/12/29 02:58:57;;;;;;;6.28;2.05;;;7.90;99.90;;;;;;5033430;28;20133;-71
2023/12/29 03:01:22;;;;;;;16.08;4.30;;;7.80;99.90;;;;;;5049772;28;20048;-71
2023/12/29 03:03:48;;;;;;;19.42;3.05;;;7.80;99.90;;;;;;5050138;28;20068;-71
2023/12/29 03:06:13;;;;;;;18.33;3.10;;;8.10;99.90;;;;;;5050117;28;20041;-71
2023/12/29 03:08:39;;;;;;;21.95;3.72;;;8.20;99.90;;;;;;5049868;28;20044;-71
2023/12/29 03:11:04;;;;;;;19.50;4.95;;;8.00;99.90;;;;;;5049501;28;20044;-71
2023/12/29 03:13:30;;;;;;;17.83;3.60;;;8.30;99.90;;;;;;5051254;28;20041;-71
2023/12/29 03:15:56;;;;;;;19.38;4.85;;;8.40;99.90;;;;;;5050021;28;20423;-71
2023/12/29 03:18:21;;;;;;;21.63;4.13;;;8.40;99.90;;;;;;5051076;28;20166;-71
2023/12/29 03:20:47;;;;;;;20.70;4.03;;;8.50;99.90;;;;;;5051209;28;20408;-71
2023/12/29 03:23:12;;;;;;;21.88;5.88;;;8.60;99.90;;;;;;5051026;28;20037;-71
2023/12/29 03:25:38;;;;;;;24.52;4.82;;;8.80;99.90;;;;;;5049615;28;20531;-72
2023/12/29 03:28:04;;;;;;;28.50;5.35;;;8.60;99.90;;;;;;5050949;28;20037;-71
2023/12/29 03:30:29;;;;;;;16.83;5.03;;;8.90;99.90;;;;;;5049798;28;20047;-72
2023/12/29 03:32:55;;;;;;;20.52;5.03;;;8.70;99.90;;;;;;5050991;28;20404;-71
2023/12/29 03:35:20;;;;;;;18.40;4.55;;;9.00;99.90;;;;;;5049898;28;20086;-72
2023/12/29 03:37:46;;;;;;;23.38;5.07;;;9.00;99.90;;;;;;5049384;28;20099;-72
2023/12/29 03:40:12;;;;;;;22.23;4.32;;;8.90;99.90;;;;;;5051104;28;20033;-72
2023/12/29 03:42:39;;;;;;;34.08;6.60;;;9.10;99.90;;;;;;5049602;28;20049;-71
2023/12/29 03:45:05;;;;;;;22.55;5.03;;;9.00;99.90;;;;;;5049482;28;20520;-72
2023/12/29 03:47:31;;;;;;;16.42;4.35;;;9.00;99.90;;;;;;5049282;28;20068;-72
2023/12/29 03:49:57;;;;;;;21.30;5.00;;;9.00;99.90;;;;;;5049538;28;20053;-72
2023/12/29 03:52:23;;;;;;;16.55;4.10;;;9.00;99.90;;;;;;5049565;28;20094;-72
2023/12/29 03:54:49;;;;;;;20.20;4.72;;;9.10;99.90;;;;;;5049659;28;20037;-72
2023/12/29 03:57:14;;;;;;;31.73;5.82;;;9.10;99.90;;;;;;5049167;28;20049;-72
2023/12/29 03:59:40;;;;;;;31.65;4.82;;;9.10;99.90;;;;;;5050751;28;20409;-72
2023/12/29 04:02:06;;;;;;;15.77;4.38;;;9.30;99.90;;;;;;5049314;28;20064;-72
2023/12/29 04:04:31;;;;;;;26.92;5.07;;;9.20;99.90;;;;;;5049346;28;20033;-72
2023/12/29 04:06:57;;;;;;;28.95;5.03;;;9.10;99.90;;;;;;5049240;28;20063;-72
2023/12/29 04:09:23;;;;;;;27.58;5.50;;;9.10;99.90;;;;;;5049233;28;20120;-72
2023/12/29 04:11:48;;;;;;;22.40;4.55;;;9.20;99.90;;;;;;5049325;28;20049;-72
2023/12/29 04:14:14;;;;;;;29.83;5.43;;;9.10;99.90;;;;;;5049556;28;20045;-72
2023/12/29 04:16:40;;;;;;;25.13;5.47;;;9.10;99.90;;;;;;5049062;28;20521;-72
2023/12/29 04:19:05;;;;;;;33.55;5.95;;;9.20;99.90;;;;;;5050432;28;20049;-72
2023/12/29 04:21:31;;;;;;;21.98;4.38;;;9.10;99.90;;;;;;5051218;28;20029;-72
2023/12/29 04:23:57;;;;;;;23.73;5.07;;;9.20;99.90;;;;;;5053192;28;20087;-72
2023/12/29 04:26:22;;;;;;;24.80;4.28;;;9.10;99.90;;;;;;5053206;28;20033;-72
2023/12/29 04:28:48;;;;;;;26.38;5.55;;;9.20;99.90;;;;;;5052876;28;20120;-72
2023/12/29 04:31:14;;;;;;;27.58;5.60;;;9.20;99.90;;;;;;5052936;28;20049;-72
2023/12/29 04:33:40;;;;;;;24.42;6.10;;;9.20;99.90;;;;;;5052977;28;20110;-72
2023/12/29 04:36:06;;;;;;;27.45;5.28;;;9.20;99.90;;;;;;5053958;28;20438;-72
2023/12/29 04:38:31;;;;;;;32.45;4.50;;;9.10;99.90;;;;;;5052738;28;20048;-72
2023/12/29 04:40:57;;;;;;;25.42;5.47;;;9.20;99.90;;;;;;5053114;28;20045;-73
2023/12/29 04:43:23;;;;;;;25.73;5.18;;;9.30;99.90;;;;;;5052743;28;20496;-73
2023/12/29 04:45:48;;;;;;;27.08;4.40;;;9.40;99.90;;;;;;5053919;28;20091;-73
2023/12/29 04:48:14;;;;;;;27.50;5.68;;;9.30;99.90;;;;;;5053789;28;20478;-73
2023/12/29 04:50:39;;;;;;;24.80;3.90;;;9.30;99.90;;;;;;5052684;28;20040;-73
2023/12/29 04:53:05;;;;;;;22.23;5.20;;;9.20;99.90;;;;;;5052471;28;20036;-73
2023/12/29 04:55:30;;;;;;;27.90;6.05;;;9.40;99.90;;;;;;5052808;28;20043;-73
2023/12/29 04:57:56;;;;;;;23.05;6.30;;;9.30;99.90;;;;;;5037571;28;20052;-73
2023/12/29 05:00:22;;;;;;;23.02;4.22;;;9.40;99.90;;;;;;5032759;28;20088;-73
2023/12/29 05:02:47;;;;;;;23.50;3.97;;;9.30;99.90;;;;;;5033732;28;20038;-72
2023/12/29 05:05:13;;;;;;;21.77;4.50;;;9.20;99.90;;;;;;5016116;28;20041;-73
2023/12/29 05:07:38;;;;;;;17.70;4.82;;;9.30;99.90;;;;;;5032125;28;20073;-73
2023/12/29 05:10:05;;;;;;;23.30;4.68;;;9.30;99.90;;;;;;5032660;28;20045;-73
2023/12/29 05:12:30;;;;;;;20.85;4.93;;;9.30;99.90;;;;;;5032271;28;20112;-73
2023/12/29 05:14:56;;;;;;;27.08;5.05;;;9.30;99.90;;;;;;5032490;28;20468;-73
2023/12/29 05:17:21;;;;;;;19.88;5.35;;;9.20;99.90;;;;;;5031879;28;20136;-73
2023/12/29 05:19:47;;;;;;;23.23;5.45;;;9.30;99.90;;;;;;5032122;28;20045;-73
2023/12/29 05:22:17;;;;;;;27.48;4.40;;;9.30;99.90;;;;;;5032045;28;20080;-73
2023/12/29 05:24:43;;;;;;;24.80;5.72;;;9.30;99.90;;;;;;5036925;28;20047;-73
2023/12/29 05:27:09;;;;;;;23.25;5.20;;;9.30;99.90;;;;;;5051706;28;20044;-73
2023/12/29 05:29:34;;;;;;;18.02;4.15;;;9.30;99.90;;;;;;5051848;28;20091;-73
2023/12/29 05:32:02;;;;;;;25.20;6.03;;;9.30;99.90;;;;;;5051824;28;20037;-73
2023/12/29 05:34:28;;;;;;;22.35;4.10;;;9.40;99.90;;;;;;5053240;28;20052;-73
2023/12/29 05:36:53;;;;;;;19.98;4.63;;;9.40;99.90;;;;;;5053027;28;20041;-73
2023/12/29 05:39:19;;;;;;;24.02;5.40;;;9.40;99.90;;;;;;5051602;28;20111;-73
2023/12/29 05:41:45;;;;;;;24.05;4.60;;;9.40;99.90;;;;;;5051583;28;20040;-73
2023/12/29 05:44:10;;;;;;;18.60;4.30;;;9.40;99.90;;;;;;5035082;28;20087;-73
2023/12/29 05:46:36;;;;;;;30.58;5.90;;;9.40;99.90;;;;;;5051679;28;20051;-73
2023/12/29 05:49:01;;;;;;;30.63;4.38;;;9.40;99.90;;;;;;5051377;28;20489;-73
2023/12/29 05:51:27;;;;;;;22.13;5.13;;;9.50;99.90;;;;;;5051352;28;20382;-73
2023/12/29 05:53:53;;;;;;;25.92;5.03;;;9.50;99.90;;;;;;5034926;28;20076;-73
2023/12/29 05:56:19;;;;;;;19.65;4.40;;;9.50;99.90;;;;;;5052497;28;20041;-73
2023/12/29 05:58:44;;;;;;;16.58;4.32;;;9.40;99.90;;;;;;5051200;28;20043;-73
2023/12/29 06:01:10;;;;;;;22.90;4.00;;;9.40;99.90;;;;;;5051569;28;20045;-73
2023/12/29 06:03:36;;;;;;;18.20;3.83;;;9.40;99.90;;;;;;5051171;28;20048;-73
2023/12/29 06:06:02;;;;;;;16.77;3.72;;;9.40;99.90;;;;;;5034470;28;20040;-73
2023/12/29 06:08:28;;;;;;;18.58;4.38;;;9.40;99.90;;;;;;5051060;28;20075;-73
2023/12/29 06:10:53;;;;;;;14.85;3.58;;;9.50;99.90;;;;;;5052338;28;20080;-73
2023/12/29 06:13:19;;;;;;;19.88;4.03;;;9.40;99.90;;;;;;5051024;28;20052;-73
2023/12/29 06:15:45;;;;;;;22.08;4.20;;;9.50;99.90;;;;;;5050907;28;20037;-73
2023/12/29 06:18:11;;;;;;;17.90;3.95;;;9.50;99.90;;;;;;5050675;28;20467;-73
2023/12/29 06:20:36;;;;;;;24.42;5.22;;;9.50;99.90;;;;;;5050915;28;20056;-73
2023/12/29 06:23:02;;;;;;;23.13;5.07;;;9.40;99.90;;;;;;5050796;28;20124;-73
2023/12/29 06:25:28;;;;;;;16.35;4.32;;;9.50;99.90;;;;;;5051000;28;20518;-73
2023/12/29 06:27:54;;;;;;;28.10;3.72;;;9.50;99.90;;;;;;5051851;28;20120;-73
2023/12/29 06:30:20;;;;;;;16.60;4.63;;;9.40;99.90;;;;;;5050966;28;20040;-73
2023/12/29 06:32:46;;;;;;;14.75;2.88;;;9.50;99.90;;;;;;5050671;28;20492;-73
2023/12/29 06:35:11;;;;;;;17.50;3.35;;;9.40;99.90;;;;;;5050678;28;20033;-73
2023/12/29 06:37:41;;;;;;;20.02;3.55;;;9.40;99.90;;;;;;5050386;28;20041;-73
2023/12/29 06:40:07;;;;;;;17.05;3.55;;;9.40;99.90;;;;;;5050517;28;20045;-73
2023/12/29 06:42:33;;;;;;;15.02;4.05;;;9.30;99.90;;;;;;5050446;28;20073;-73
2023/12/29 06:44:59;;;;;;;22.02;4.43;;;9.30;99.90;;;;;;5049866;28;20071;-73
2023/12/29 06:47:24;;;;;;;15.93;3.97;;;9.30;99.90;;;;;;5050125;28;20044;-73
2023/12/29 06:49:50;;;;;;;15.38;2.92;;;9.20;99.90;;;;;;5051709;28;20037;-73
2023/12/29 06:52:16;;;;;;;20.45;4.53;;;9.20;99.90;;;;;;5050170;28;20041;-73
2023/12/29 06:54:42;;;;;;;18.55;4.00;;;9.10;99.90;;;;;;5050191;28;20052;-73
2023/12/29 06:57:08;;;;;;;26.02;4.90;;;9.00;99.90;;;;;;5050090;28;20520;-73
2023/12/29 06:59:34;;;;;;;19.45;5.22;;;9.00;99.90;;;;;;5050226;28;20064;-73
2023/12/29 07:01:59;;;;;;;19.58;3.88;;;9.10;99.90;;;;;;5050172;28;20037;-73
2023/12/29 07:04:25;;;;;;;19.42;4.13;;;9.00;99.90;;;;;;5051416;28;20059;-73
2023/12/29 07:06:50;;;;;;;23.63;3.33;;;8.80;99.90;;;;;;5050015;28;20404;-73
2023/12/29 07:09:16;;;;;;;22.30;5.28;;;8.90;99.90;;;;;;5049838;28;20049;-73
2023/12/29 07:11:46;;;;;;;22.13;4.18;;;9.00;99.90;;;;;;5050240;28;20063;-73
2023/12/29 07:14:12;;;;;;;18.95;4.13;;;8.80;99.90;;;;;;5050043;28;20051;-73
2023/12/29 07:16:38;;;;;;;20.15;4.47;;;9.00;99.90;;;;;;5051156;28;20123;-73
2023/12/29 07:19:03;;;;;;;17.70;5.07;;;8.90;99.90;;;;;;5051096;28;20463;-72
2023/12/29 07:21:29;;;;;;;22.58;4.78;;;8.90;99.90;;;;;;5049844;28;20416;-74
2023/12/29 07:23:54;;;;;;;25.60;5.28;;;9.00;99.90;;;;;;5051095;28;20076;-74
2023/12/29 07:26:20;;;;;;;31.25;5.15;;;9.00;99.90;;;;;;5049702;28;20124;-74
2023/12/29 07:28:46;;;;;;;26.88;6.00;;;9.10;99.90;;;;;;5049973;28;20043;-74
2023/12/29 07:31:12;;;;;;;25.40;4.43;;;9.00;99.90;;;;;;5049709;28;20504;-75
2023/12/29 07:33:37;;;;;;;27.13;6.00;;;9.10;99.90;;;;;;5050194;28;20044;-73
2023/12/29 07:36:03;;;;;;;34.50;6.32;;;9.10;99.90;;;;;;5051111;28;20109;-72
2023/12/29 07:38:29;;;;;;;25.40;5.75;;;9.10;99.90;;;;;;5051385;28;20043;-72
2023/12/29 07:40:55;;;;;;;25.27;6.07;;;9.00;99.90;;;;;;5051427;28;20116;-73
2023/12/29 07:43:20;;;;;;;24.63;4.15;;;8.90;99.90;;;;;;5049822;28;20567;-75
2023/12/29 07:45:46;;;;;;;16.13;4.53;;;9.10;99.90;;;;;;5049711;28;20045;-75
2023/12/29 07:48:11;;;;;;;21.45;4.80;;;9.10;99.90;;;;;;5049527;28;20041;-75
2023/12/29 07:50:37;;;;;;;20.73;4.32;;;9.00;99.90;;;;;;5051024;28;20044;-75
2023/12/29 07:53:03;;;;;;;25.77;5.05;;;9.00;99.90;;;;;;5050896;28;20044;-75
2023/12/29 07:55:30;;;;;;;28.35;4.55;;;9.00;99.90;;;;;;5050401;28;20534;-75
2023/12/29 07:57:56;;;;;;;33.20;5.57;;;9.00;99.90;;;;;;5053368;28;20063;-75
2023/12/29 08:00:22;;;;;;;37.22;5.03;;;9.00;99.90;;;;;;5053682;28;20048;-73
2023/12/29 08:02:48;;;;;;;27.70;4.32;;;9.10;99.90;;;;;;5036875;28;20044;-72
2023/12/29 08:05:15;;;;;;;26.00;5.03;;;9.00;99.90;;;;;;5053439;28;20044;-72
2023/12/29 08:07:41;;;;;;;28.20;5.00;;;9.00;99.90;;;;;;5053006;28;20491;-72
2023/12/29 08:10:07;;;;;;;27.52;5.78;;;9.10;99.90;;;;;;5053375;28;20073;-72
2023/12/29 08:12:33;;;;;;;36.60;5.63;;;9.20;99.90;;;;;;5054936;28;20076;-72
2023/12/29 08:15:00;;;;;;;22.88;4.13;;;9.10;99.90;;;;;;5053365;28;20103;-75
2023/12/29 08:17:26;;;;;;;24.35;5.20;;;9.20;99.90;;;;;;5052996;28;20041;-75
2023/12/29 08:19:51;;;;;;;18.63;4.85;;;9.20;99.90;;;;;;5053401;28;20032;-75
2023/12/29 08:22:17;;;;;;;17.25;4.43;;;9.10;99.90;;;;;;5054543;28;20470;-75
2023/12/29 08:24:43;;;;;;;20.08;4.63;;;9.20;99.90;;;;;;5053445;28;20048;-75
2023/12/29 08:27:10;;;;;;;27.10;6.60;;;9.30;99.90;;;;;;5054294;28;20416;-75
2023/12/29 08:29:36;;;;;;;26.77;4.85;;;9.20;99.90;;;;;;5053096;28;20072;-75
2023/12/29 08:32:02;;;;;;;22.17;6.00;;;9.30;99.90;;;;;;5052928;28;20162;-78
2023/12/29 08:34:28;;;;;;;18.92;4.13;;;9.20;99.90;;;;;;5053110;28;20140;-75
2023/12/29 08:36:53;;;;;;;17.77;5.32;;;9.30;99.90;;;;;;5036259;28;20041;-76
2023/12/29 08:39:19;;;;;;;23.60;4.80;;;9.40;99.90;;;;;;5052856;28;20045;-76
2023/12/29 08:41:44;;;;;;;20.40;4.40;;;9.30;99.90;;;;;;5053038;28;20037;-76
2023/12/29 08:44:10;;;;;;;19.13;3.75;;;9.20;99.90;;;;;;5052912;28;20029;-75
2023/12/29 08:46:36;;;;;;;23.17;3.97;;;9.40;99.90;;;;;;5053023;28;20044;-75
2023/12/29 08:49:01;;;;;;;23.33;4.15;;;9.40;99.90;;;;;;5052996;28;20550;-75
2023/12/29 08:51:28;;;;;;;26.77;4.50;;;9.30;99.90;;;;;;5075786;22;20068;-73
2023/12/29 08:53:54;;;;;;;25.70;4.65;;;9.30;99.90;;;;;;5034598;28;20042;-73
2023/12/29 08:56:19;;;;;;;30.05;5.40;;;9.20;99.90;;;;;;5032913;28;20382;-73
2023/12/29 08:58:46;;;;;;;25.02;5.13;;;9.30;99.90;;;;;;5032989;28;20244;-74
2023/12/29 09:01:12;;;;;;;30.92;4.95;;;9.30;99.90;;;;;;5049099;28;20103;-74
2023/12/29 09:03:44;;;;;;;30.33;4.90;;;9.20;99.90;;;;;;5033307;28;20052;-74
2023/12/29 09:06:09;;;;;;;23.92;3.70;;;9.30;99.90;;;;;;5034005;28;20117;-73
2023/12/29 09:08:35;;;;;;;23.45;5.90;;;9.30;99.90;;;;;;5032166;28;20042;-73
2023/12/29 09:11:02;;;;;;;18.80;3.92;;;9.30;99.90;;;;;;5034208;28;20041;-73
2023/12/29 09:13:28;;;;;;;33.75;7.03;;;9.40;99.90;;;;;;5031966;28;20049;-74
2023/12/29 09:15:55;;;;;;;22.08;4.68;;;9.50;99.90;;;;;;5032530;28;20047;-74
2023/12/29 09:18:20;;;;;;;22.02;4.20;;;9.40;99.90;;;;;;5033722;28;20077;-73
2023/12/29 09:20:47;;;;;;;23.98;4.20;;;9.40;99.90;;;;;;5032686;28;20136;-73
2023/12/29 09:23:13;;;;;;;20.80;4.43;;;9.50;99.90;;;;;;5033781;28;20049;-73
2023/12/29 09:25:40;;;;;;;19.08;7.18;;;9.40;99.90;;;;;;5033709;28;20038;-73
2023/12/29 09:28:05;;;;;;;24.65;5.05;;;9.50;99.90;;;;;;5032455;28;20048;-73
2023/12/29 09:30:31;;;;;;;32.30;4.32;;;9.50;99.90;;;;;;5033777;28;20037;-73
2023/12/29 09:32:56;;;;;;;29.08;5.63;;;9.40;99.90;;;;;;5033483;28;20049;-73
2023/12/29 09:35:22;;;;;;;24.05;4.82;;;9.40;99.90;;;;;;5033910;28;20148;-73
2023/12/29 09:37:51;;;;;;;23.52;4.85;;;9.60;99.90;;;;;;5032282;28;20048;-73
2023/12/29 09:40:17;;;;;;;29.00;4.53;;;9.50;99.90;;;;;;5033697;28;20064;-73
2023/12/29 09:42:47;;;;;;;21.63;4.45;;;9.50;99.90;;;;;;5032124;28;20485;-73
2023/12/29 09:45:13;;;;;;;23.60;4.82;;;9.50;99.90;;;;;;5033380;28;20496;-73
2023/12/29 09:47:41;;;;;;;31.30;4.93;;;9.60;99.90;;;;;;5031898;28;20037;-73
2023/12/29 09:50:10;;;;;;;24.65;4.32;;;9.70;99.90;;;;;;5032352;28;20489;-73
2023/12/29 09:52:38;;;;;;;27.63;5.35;;;9.60;99.90;;;;;;5031482;28;20037;-72
2023/12/29 09:55:07;;;;;;;26.70;4.55;;;9.70;99.90;;;;;;5032937;28;20416;-72
2023/12/29 09:57:33;;;;;;;28.10;4.63;;;9.60;99.90;;;;;;5032541;28;20489;-72
2023/12/29 09:59:59;;;;;;;19.60;4.40;;;9.70;99.90;;;;;;5033210;28;20099;-72
2023/12/29 10:02:25;;;;;;;31.33;4.32;;;9.80;99.90;;;;;;5033081;28;20615;-73
2023/12/29 10:04:50;;;;;;;22.08;5.28;;;9.80;99.90;;;;;;5032839;28;20112;-73
2023/12/29 10:07:25;;;;;;;19.02;4.57;;;9.80;99.90;;;;;;5032569;28;20104;-73
2023/12/29 10:09:54;;;;;;;24.05;5.80;;;9.80;99.90;;;;;;5012302;28;20545;-73
2023/12/29 10:12:21;;;;;;;23.75;3.25;;;9.80;99.90;;;;;;5013195;28;20457;-73
2023/12/29 10:14:56;;;;;;;20.58;5.40;;;10.00;99.90;;;;;;5013236;28;20092;-73
2023/12/29 10:17:34;;;;;;;15.98;3.50;;;9.90;99.90;;;;;;5011747;28;20525;-73
2023/12/29 10:20:25;;;;;;;28.10;4.82;;;10.00;99.90;;;;;;5011156;28;20045;-73
2023/12/29 10:23:12;;;;;;;18.45;4.25;;;10.00;99.90;;;;;;5011706;28;20386;-73
2023/12/29 10:25:38;;;;;;;15.75;3.17;;;9.90;99.90;;;;;;5029908;28;20068;-72
2023/12/29 10:28:06;;;;;;;22.75;4.13;;;9.90;99.90;;;;;;5030733;28;20084;-72
2023/12/29 10:30:32;;;;;;;16.77;3.60;;;10.00;99.90;;;;;;5028210;28;20077;-72
2023/12/29 10:33:00;;;;;;;15.18;3.85;;;10.00;99.90;;;;;;5024725;28;20026;-72
2023/12/29 10:35:26;;;;;;;25.20;4.28;;;10.00;99.90;;;;;;5029071;28;20048;-73
2023/12/29 10:37:51;;;;;;;10.43;3.53;;;10.00;99.90;;;;;;5030149;28;20116;-72
2023/12/29 10:40:19;;;;;;;17.27;3.83;;;10.00;99.90;;;;;;5032654;28;20041;-72
2023/12/29 10:42:55;;;;;;;20.58;4.55;;;10.10;99.90;;;;;;5031129;28;20049;-72
2023/12/29 10:45:21;;;;;;;15.80;3.88;;;10.00;99.90;;;;;;5031235;28;20080;-72
2023/12/29 10:47:46;;;;;;;16.13;5.13;;;10.00;99.90;;;;;;5030891;28;20049;-73
2023/12/29 10:50:12;;;;;;;17.15;4.40;;;10.00;99.90;;;;;;5031170;28;20041;-72
2023/12/29 10:52:40;;;;;;;15.25;2.83;;;10.10;99.90;;;;;;5030825;28;20077;-72
2023/12/29 10:55:08;;;;;;;18.00;2.97;;;10.10;99.90;;;;;;5032379;28;20037;-72
2023/12/29 10:57:35;;;;;;;14.80;2.80;;;10.00;99.90;;;;;;5030825;28;20112;-72
2023/12/29 11:00:01;;;;;;;12.85;3.60;;;10.00;99.90;;;;;;5031529;28;20056;-72
2023/12/29 11:02:28;;;;;;;16.48;2.60;;;10.00;99.90;;;;;;5030846;28;20042;-72
2023/12/29 11:05:07;;;;;;;10.13;2.65;;;10.00;99.90;;;;;;5030844;28;20406;-73
2023/12/29 11:07:42;;;;;;;17.92;3.85;;;9.90;99.90;;;;;;5030818;28;20048;-73
2023/12/29 11:10:09;;;;;;;19.02;3.60;;;9.80;99.90;;;;;;5030846;28;20037;-74
2023/12/29 11:12:36;;;;;;;11.82;3.25;;;9.70;99.90;;;;;;5031924;28;20505;-72
2023/12/29 11:15:04;;;;;;;15.38;3.65;;;9.60;99.90;;;;;;5031999;28;20043;-72
2023/12/29 11:17:32;;;;;;;9.07;2.25;;;9.60;99.90;;;;;;5029663;28;20049;-73
2023/12/29 11:19:59;;;;;;;18.15;2.92;;;9.60;99.90;;;;;;5029915;28;20061;-74
2023/12/29 11:22:28;;;;;;;17.50;2.65;;;9.70;99.90;;;;;;5028340;28;20107;-72
2023/12/29 11:24:54;;;;;;;11.52;2.80;;;9.80;99.90;;;;;;5030808;28;20053;-73
2023/12/29 11:27:21;;;;;;;13.25;2.17;;;9.80;99.90;;;;;;5030501;28;20117;-73
2023/12/29 11:29:47;;;;;;;19.73;4.35;;;9.80;99.90;;;;;;5031637;28;20588;-72
2023/12/29 11:32:19;;;;;;;15.82;3.90;;;9.80;99.90;;;;;;5029738;28;20124;-72
2023/12/29 11:34:52;;;;;;;11.20;2.88;;;9.90;99.90;;;;;;5028882;28;20037;-72
2023/12/29 11:37:30;;;;;;;14.13;2.67;;;9.90;99.90;;;;;;5027866;28;20080;-73
2023/12/29 11:40:12;;;;;;;15.18;4.32;;;9.90;99.90;;;;;;5026550;28;20049;-72
2023/12/29 11:42:41;;;;;;;19.58;3.53;;;10.10;99.90;;;;;;5027406;28;20521;-72
2023/12/29 11:45:29;;;;;;;8.45;2.63;;;10.00;99.90;;;;;;5030152;28;20044;-73
2023/12/29 11:47:56;;;;;;;15.48;2.50;;;10.00;99.90;;;;;;5019616;28;20139;-72
2023/12/29 11:50:33;;;;;;;15.27;3.70;;;10.10;99.90;;;;;;5027195;28;20055;-73
2023/12/29 11:52:58;;;;;;;11.38;2.28;;;10.10;99.90;;;;;;5011557;28;20034;-74
2023/12/29 11:55:38;;;;;;;12.48;2.15;;;10.10;99.90;;;;;;5011596;28;20046;-73
2023/12/29 11:58:22;;;;;;;10.75;2.20;;;10.10;99.90;;;;;;5011537;28;20041;-72
2023/12/29 12:00:48;;;;;;;15.15;2.55;;;10.10;99.90;;;;;;5011702;28;20038;-72
2023/12/29 12:03:28;;;;;;;10.13;2.30;;;10.10;99.90;;;;;;5011567;28;20088;-73
2023/12/29 12:05:58;;;;;;;12.00;2.25;;;10.10;99.90;;;;;;5010383;28;20034;-73
2023/12/29 12:08:41;;;;;;;13.32;2.13;;;10.10;99.90;;;;;;5011460;28;20042;-73
2023/12/29 12:11:25;;;;;;;;;;;10.00;99.90;;;;;;5012029;28;20085;-73
2023/12/29 12:13:51;;;;;;;;;;;9.90;99.90;;;;;;5010757;28;19924;-73
2023/12/29 12:16:50;;;;;;;12.10;2.42;;;9.90;99.90;;;;;;4993833;28;19917;-73
2023/12/29 12:19:20;;;;;;;16.65;3.50;;;9.80;99.90;;;;;;5010041;28;20045;-72
2023/12/29 12:21:50;;;;;;;14.40;3.08;;;9.80;99.90;;;;;;5030584;28;20157;-73
2023/12/29 12:24:19;;;;;;;9.93;2.13;;;9.80;99.90;;;;;;5030539;28;20053;-73
2023/12/29 12:26:45;;;;;;;17.27;2.80;;;9.80;99.90;;;;;;5028517;28;20040;-73
2023/12/29 12:29:13;;;;;;;15.52;2.47;;;9.80;99.90;;;;;;5029634;28;20037;-72
2023/12/29 12:31:59;;;;;;;9.13;1.75;;;9.80;99.90;;;;;;5030971;28;20041;-73
2023/12/29 12:34:26;;;;;;;11.02;2.70;;;9.70;99.90;;;;;;5030766;28;20057;-73
2023/12/29 12:36:53;;;;;;;14.07;2.40;;;9.80;99.90;;;;;;5031019;28;20037;-73
2023/12/29 12:39:18;;;;;;;10.68;2.67;;;9.70;99.90;;;;;;5030965;28;20050;-73
2023/12/29 12:41:44;;;;;;;8.68;2.22;;;9.70;99.90;;;;;;5031049;28;20041;-73
2023/12/29 12:44:12;;;;;;;11.52;3.13;;;9.70;99.90;;;;;;5034331;28;20033;-72